sensor_id;sensor_type;location;lat;lon;timestamp;P1;durP1;ratioP1;P2;durP2;ratioP2
577;SDS011;275;48.492;9.214;2023-12-14T00:01:38;3.60;;;2.72;;
577;SDS011;275;48.492;9.214;2023-12-14T00:04:06;3.63;;;2.67;;
577;SDS011;275;48.492;9.214;2023-12-14T00:06:34;3.60;;;2.72;;
577;SDS011;275;48.492;9.214;2023-12-14T00:09:01;3.88;;;3.13;;
577;SDS011;275;48.492;9.214;2023-12-14T00:11:28;4.28;;;3.38;;
577;SDS011;275;48.492;9.214;2023-12-14T00:13:55;4.28;;;3.45;;
577;SDS011;275;48.492;9.214;2023-12-14T00:16:22;3.50;;;3.20;;
577;SDS011;275;48.492;9.214;2023-12-14T00:18:49;3.45;;;3.13;;
577;SDS011;275;48.492;9.214;2023-12-14T00:21:16;3.88;;;3.40;;
577;SDS011;275;48.492;9.214;2023-12-14T00:23:44;4.07;;;2.80;;
577;SDS011;275;48.492;9.214;2023-12-14T00:26:11;4.53;;;2.80;;
577;SDS011;275;48.492;9.214;2023-12-14T00:28:37;4.80;;;2.90;;
577;SDS011;275;48.492;9.214;2023-12-14T00:31:03;2.90;;;2.30;;
577;SDS011;275;48.492;9.214;2023-12-14T00:33:30;3.97;;;2.70;;
577;SDS011;275;48.492;9.214;2023-12-14T00:35:57;3.15;;;2.50;;
577;SDS011;275;48.492;9.214;2023-12-14T00:38:24;3.42;;;2.92;;
577;SDS011;275;48.492;9.214;2023-12-14T00:40:52;4.38;;;3.15;;
577;SDS011;275;48.492;9.214;2023-12-14T00:43:19;4.30;;;3.47;;
577;SDS011;275;48.492;9.214;2023-12-14T00:45:46;3.28;;;2.63;;
577;SDS011;275;48.492;9.214;2023-12-14T00:48:13;3.42;;;2.28;;
577;SDS011;275;48.492;9.214;2023-12-14T00:50:40;4.07;;;2.95;;
577;SDS011;275;48.492;9.214;2023-12-14T00:53:06;3.20;;;2.40;;
577;SDS011;275;48.492;9.214;2023-12-14T00:55:33;3.20;;;2.50;;
577;SDS011;275;48.492;9.214;2023-12-14T00:58:01;4.80;;;2.55;;
577;SDS011;275;48.492;9.214;2023-12-14T01:00:28;3.38;;;2.50;;
577;SDS011;275;48.492;9.214;2023-12-14T01:02:56;3.10;;;2.50;;
577;SDS011;275;48.492;9.214;2023-12-14T01:05:23;5.55;;;2.08;;
577;SDS011;275;48.492;9.214;2023-12-14T01:07:49;4.07;;;1.92;;
577;SDS011;275;48.492;9.214;2023-12-14T01:10:16;3.00;;;2.10;;
577;SDS011;275;48.492;9.214;2023-12-14T01:12:43;3.75;;;2.45;;
577;SDS011;275;48.492;9.214;2023-12-14T01:15:11;3.42;;;2.60;;
577;SDS011;275;48.492;9.214;2023-12-14T01:17:38;3.10;;;2.25;;
577;SDS011;275;48.492;9.214;2023-12-14T01:20:05;3.30;;;2.42;;
577;SDS011;275;48.492;9.214;2023-12-14T01:22:33;3.40;;;2.33;;
577;SDS011;275;48.492;9.214;2023-12-14T01:25:00;2.80;;;2.20;;
577;SDS011;275;48.492;9.214;2023-12-14T01:27:27;3.75;;;2.20;;
577;SDS011;275;48.492;9.214;2023-12-14T01:29:54;4.38;;;2.58;;
577;SDS011;275;48.492;9.214;2023-12-14T01:32:22;2.72;;;2.00;;
577;SDS011;275;48.492;9.214;2023-12-14T01:34:49;3.00;;;2.50;;
577;SDS011;275;48.492;9.214;2023-12-14T01:37:15;3.10;;;2.03;;
577;SDS011;275;48.492;9.214;2023-12-14T01:39:42;5.63;;;2.63;;
577;SDS011;275;48.492;9.214;2023-12-14T01:42:09;3.42;;;2.10;;
577;SDS011;275;48.492;9.214;2023-12-14T01:44:36;3.50;;;2.60;;
577;SDS011;275;48.492;9.214;2023-12-14T01:47:03;4.25;;;3.25;;
577;SDS011;275;48.492;9.214;2023-12-14T01:49:31;4.13;;;2.88;;
577;SDS011;275;48.492;9.214;2023-12-14T01:51:58;3.08;;;2.20;;
577;SDS011;275;48.492;9.214;2023-12-14T01:54:25;4.10;;;2.75;;
577;SDS011;275;48.492;9.214;2023-12-14T01:56:51;3.78;;;2.63;;
577;SDS011;275;48.492;9.214;2023-12-14T01:59:19;3.88;;;2.60;;
577;SDS011;275;48.492;9.214;2023-12-14T02:01:46;4.80;;;1.85;;
577;SDS011;275;48.492;9.214;2023-12-14T02:04:21;3.95;;;2.33;;
577;SDS011;275;48.492;9.214;2023-12-14T02:06:50;3.42;;;2.10;;
577;SDS011;275;48.492;9.214;2023-12-14T02:09:17;2.80;;;1.80;;
577;SDS011;275;48.492;9.214;2023-12-14T02:11:44;3.42;;;1.95;;
577;SDS011;275;48.492;9.214;2023-12-14T02:14:11;4.15;;;2.15;;
577;SDS011;275;48.492;9.214;2023-12-14T02:16:38;4.25;;;3.00;;
577;SDS011;275;48.492;9.214;2023-12-14T02:19:05;4.32;;;2.50;;
577;SDS011;275;48.492;9.214;2023-12-14T02:21:32;2.92;;;2.08;;
577;SDS011;275;48.492;9.214;2023-12-14T02:24:00;3.30;;;2.05;;
577;SDS011;275;48.492;9.214;2023-12-14T02:26:27;3.45;;;2.42;;
577;SDS011;275;48.492;9.214;2023-12-14T02:28:54;4.25;;;2.40;;
577;SDS011;275;48.492;9.214;2023-12-14T02:31:21;4.40;;;2.42;;
577;SDS011;275;48.492;9.214;2023-12-14T02:33:49;3.95;;;2.10;;
577;SDS011;275;48.492;9.214;2023-12-14T02:36:16;5.88;;;2.15;;
577;SDS011;275;48.492;9.214;2023-12-14T02:38:42;3.95;;;2.50;;
577;SDS011;275;48.492;9.214;2023-12-14T02:41:11;4.95;;;2.90;;
577;SDS011;275;48.492;9.214;2023-12-14T02:43:38;2.65;;;1.83;;
577;SDS011;275;48.492;9.214;2023-12-14T02:46:05;3.90;;;2.45;;
577;SDS011;275;48.492;9.214;2023-12-14T02:48:32;3.80;;;2.33;;
577;SDS011;275;48.492;9.214;2023-12-14T02:50:59;3.70;;;2.75;;
577;SDS011;275;48.492;9.214;2023-12-14T02:53:26;5.63;;;2.55;;
577;SDS011;275;48.492;9.214;2023-12-14T02:55:53;5.22;;;3.05;;
577;SDS011;275;48.492;9.214;2023-12-14T02:58:21;3.67;;;2.70;;
577;SDS011;275;48.492;9.214;2023-12-14T03:00:48;4.75;;;2.75;;
577;SDS011;275;48.492;9.214;2023-12-14T03:03:15;3.50;;;2.28;;
577;SDS011;275;48.492;9.214;2023-12-14T03:05:42;3.20;;;1.85;;
577;SDS011;275;48.492;9.214;2023-12-14T03:08:08;5.05;;;2.45;;
577;SDS011;275;48.492;9.214;2023-12-14T03:10:35;3.75;;;2.50;;
577;SDS011;275;48.492;9.214;2023-12-14T03:13:02;3.05;;;1.70;;
577;SDS011;275;48.492;9.214;2023-12-14T03:15:30;3.00;;;1.98;;
577;SDS011;275;48.492;9.214;2023-12-14T03:17:57;3.40;;;2.08;;
577;SDS011;275;48.492;9.214;2023-12-14T03:20:24;3.53;;;2.58;;
577;SDS011;275;48.492;9.214;2023-12-14T03:22:51;4.78;;;3.03;;
577;SDS011;275;48.492;9.214;2023-12-14T03:25:17;6.00;;;3.22;;
577;SDS011;275;48.492;9.214;2023-12-14T03:27:44;5.45;;;3.40;;
577;SDS011;275;48.492;9.214;2023-12-14T03:30:11;3.80;;;2.45;;
577;SDS011;275;48.492;9.214;2023-12-14T03:32:39;2.90;;;2.28;;
577;SDS011;275;48.492;9.214;2023-12-14T03:35:07;4.28;;;2.40;;
577;SDS011;275;48.492;9.214;2023-12-14T03:37:34;3.47;;;1.63;;
577;SDS011;275;48.492;9.214;2023-12-14T03:40:01;2.47;;;1.55;;
577;SDS011;275;48.492;9.214;2023-12-14T03:42:28;2.70;;;1.40;;
577;SDS011;275;48.492;9.214;2023-12-14T03:44:55;2.92;;;1.90;;
577;SDS011;275;48.492;9.214;2023-12-14T03:47:22;2.47;;;1.45;;
577;SDS011;275;48.492;9.214;2023-12-14T03:49:50;2.75;;;2.17;;
577;SDS011;275;48.492;9.214;2023-12-14T03:52:17;3.30;;;2.50;;
577;SDS011;275;48.492;9.214;2023-12-14T03:54:44;3.40;;;2.10;;
577;SDS011;275;48.492;9.214;2023-12-14T03:57:11;3.40;;;2.20;;
577;SDS011;275;48.492;9.214;2023-12-14T03:59:38;3.55;;;1.83;;
577;SDS011;275;48.492;9.214;2023-12-14T04:02:06;2.85;;;1.60;;
577;SDS011;275;48.492;9.214;2023-12-14T04:04:33;3.75;;;1.58;;
577;SDS011;275;48.492;9.214;2023-12-14T04:07:01;4.28;;;1.70;;
577;SDS011;275;48.492;9.214;2023-12-14T04:09:27;2.55;;;1.60;;
577;SDS011;275;48.492;9.214;2023-12-14T04:11:54;2.85;;;1.50;;
577;SDS011;275;48.492;9.214;2023-12-14T04:14:21;3.15;;;2.30;;
577;SDS011;275;48.492;9.214;2023-12-14T04:16:48;3.97;;;2.08;;
577;SDS011;275;48.492;9.214;2023-12-14T04:19:15;3.58;;;2.35;;
577;SDS011;275;48.492;9.214;2023-12-14T04:21:41;3.80;;;2.30;;
577;SDS011;275;48.492;9.214;2023-12-14T04:24:10;3.00;;;1.80;;
577;SDS011;275;48.492;9.214;2023-12-14T04:26:37;5.97;;;2.75;;
577;SDS011;275;48.492;9.214;2023-12-14T04:29:05;7.55;;;3.58;;
577;SDS011;275;48.492;9.214;2023-12-14T04:31:33;2.90;;;2.20;;
577;SDS011;275;48.492;9.214;2023-12-14T04:34:00;4.85;;;2.83;;
577;SDS011;275;48.492;9.214;2023-12-14T04:36:27;3.20;;;2.10;;
577;SDS011;275;48.492;9.214;2023-12-14T04:38:54;3.30;;;2.30;;
577;SDS011;275;48.492;9.214;2023-12-14T04:41:22;2.80;;;1.70;;
577;SDS011;275;48.492;9.214;2023-12-14T04:43:49;2.60;;;1.90;;
577;SDS011;275;48.492;9.214;2023-12-14T04:46:15;3.50;;;2.15;;
577;SDS011;275;48.492;9.214;2023-12-14T04:48:42;2.70;;;1.98;;
577;SDS011;275;48.492;9.214;2023-12-14T04:51:11;3.50;;;1.85;;
577;SDS011;275;48.492;9.214;2023-12-14T04:53:38;4.03;;;2.47;;
577;SDS011;275;48.492;9.214;2023-12-14T04:56:05;4.95;;;2.50;;
577;SDS011;275;48.492;9.214;2023-12-14T04:58:37;3.15;;;2.42;;
577;SDS011;275;48.492;9.214;2023-12-14T05:01:05;4.85;;;2.00;;
577;SDS011;275;48.492;9.214;2023-12-14T05:03:32;4.60;;;2.75;;
577;SDS011;275;48.492;9.214;2023-12-14T05:06:00;4.72;;;3.50;;
577;SDS011;275;48.492;9.214;2023-12-14T05:08:26;4.72;;;3.20;;
577;SDS011;275;48.492;9.214;2023-12-14T05:10:53;2.97;;;2.60;;
577;SDS011;275;48.492;9.214;2023-12-14T05:13:20;3.55;;;2.20;;
577;SDS011;275;48.492;9.214;2023-12-14T05:15:48;4.85;;;2.60;;
577;SDS011;275;48.492;9.214;2023-12-14T05:18:15;2.90;;;2.05;;
577;SDS011;275;48.492;9.214;2023-12-14T05:20:42;2.78;;;2.28;;
577;SDS011;275;48.492;9.214;2023-12-14T05:23:10;3.90;;;2.40;;
577;SDS011;275;48.492;9.214;2023-12-14T05:25:38;2.78;;;2.10;;
577;SDS011;275;48.492;9.214;2023-12-14T05:28:04;3.13;;;2.20;;
577;SDS011;275;48.492;9.214;2023-12-14T05:30:31;3.20;;;2.65;;
577;SDS011;275;48.492;9.214;2023-12-14T05:32:59;3.42;;;2.50;;
577;SDS011;275;48.492;9.214;2023-12-14T05:35:26;4.22;;;2.70;;
577;SDS011;275;48.492;9.214;2023-12-14T05:37:53;3.80;;;2.72;;
577;SDS011;275;48.492;9.214;2023-12-14T05:40:20;2.17;;;1.45;;
577;SDS011;275;48.492;9.214;2023-12-14T05:42:47;3.08;;;2.60;;
577;SDS011;275;48.492;9.214;2023-12-14T05:45:14;4.90;;;2.60;;
577;SDS011;275;48.492;9.214;2023-12-14T05:47:40;3.65;;;2.65;;
577;SDS011;275;48.492;9.214;2023-12-14T05:50:09;3.35;;;2.72;;
577;SDS011;275;48.492;9.214;2023-12-14T05:52:36;3.60;;;2.97;;
577;SDS011;275;48.492;9.214;2023-12-14T05:55:03;5.50;;;3.22;;
577;SDS011;275;48.492;9.214;2023-12-14T05:57:30;4.10;;;3.70;;
577;SDS011;275;48.492;9.214;2023-12-14T05:59:57;6.78;;;4.75;;
577;SDS011;275;48.492;9.214;2023-12-14T06:02:24;4.90;;;3.90;;
577;SDS011;275;48.492;9.214;2023-12-14T06:04:50;4.40;;;4.00;;
577;SDS011;275;48.492;9.214;2023-12-14T06:07:18;4.85;;;4.35;;
577;SDS011;275;48.492;9.214;2023-12-14T06:09:45;5.20;;;4.80;;
577;SDS011;275;48.492;9.214;2023-12-14T06:12:11;4.80;;;4.25;;
577;SDS011;275;48.492;9.214;2023-12-14T06:14:39;5.10;;;4.60;;
577;SDS011;275;48.492;9.214;2023-12-14T06:17:06;6.05;;;4.75;;
577;SDS011;275;48.492;9.214;2023-12-14T06:19:32;5.88;;;5.20;;
577;SDS011;275;48.492;9.214;2023-12-14T06:21:59;5.93;;;5.10;;
577;SDS011;275;48.492;9.214;2023-12-14T06:24:28;7.40;;;6.20;;
577;SDS011;275;48.492;9.214;2023-12-14T06:26:54;6.50;;;5.90;;
577;SDS011;275;48.492;9.214;2023-12-14T06:29:21;5.75;;;5.25;;
577;SDS011;275;48.492;9.214;2023-12-14T06:31:48;5.90;;;5.30;;
577;SDS011;275;48.492;9.214;2023-12-14T06:34:16;6.03;;;5.50;;
577;SDS011;275;48.492;9.214;2023-12-14T06:36:43;6.68;;;6.05;;
577;SDS011;275;48.492;9.214;2023-12-14T06:39:11;8.93;;;8.13;;
577;SDS011;275;48.492;9.214;2023-12-14T06:41:39;10.45;;;9.52;;
577;SDS011;275;48.492;9.214;2023-12-14T06:44:06;11.13;;;10.10;;
577;SDS011;275;48.492;9.214;2023-12-14T06:46:34;9.18;;;8.35;;
577;SDS011;275;48.492;9.214;2023-12-14T06:49:01;8.70;;;7.95;;
577;SDS011;275;48.492;9.214;2023-12-14T06:51:28;9.63;;;8.52;;
577;SDS011;275;48.492;9.214;2023-12-14T06:53:55;9.05;;;8.25;;
577;SDS011;275;48.492;9.214;2023-12-14T06:56:22;8.88;;;8.18;;
577;SDS011;275;48.492;9.214;2023-12-14T06:58:50;8.63;;;7.82;;
577;SDS011;275;48.492;9.214;2023-12-14T07:01:17;11.27;;;10.38;;
577;SDS011;275;48.492;9.214;2023-12-14T07:03:44;10.85;;;10.05;;
577;SDS011;275;48.492;9.214;2023-12-14T07:06:11;10.20;;;9.30;;
577;SDS011;275;48.492;9.214;2023-12-14T07:08:39;10.10;;;9.30;;
577;SDS011;275;48.492;9.214;2023-12-14T07:11:06;9.45;;;8.73;;
577;SDS011;275;48.492;9.214;2023-12-14T07:13:32;9.15;;;8.35;;
577;SDS011;275;48.492;9.214;2023-12-14T07:16:02;10.20;;;9.30;;
577;SDS011;275;48.492;9.214;2023-12-14T07:18:30;8.48;;;7.75;;
577;SDS011;275;48.492;9.214;2023-12-14T07:20:56;8.07;;;7.38;;
577;SDS011;275;48.492;9.214;2023-12-14T07:23:23;8.90;;;6.53;;
577;SDS011;275;48.492;9.214;2023-12-14T07:25:51;7.10;;;6.50;;
577;SDS011;275;48.492;9.214;2023-12-14T07:28:18;7.40;;;6.80;;
577;SDS011;275;48.492;9.214;2023-12-14T07:30:45;6.60;;;6.00;;
577;SDS011;275;48.492;9.214;2023-12-14T07:33:13;7.60;;;6.30;;
577;SDS011;275;48.492;9.214;2023-12-14T07:35:40;6.57;;;5.75;;
577;SDS011;275;48.492;9.214;2023-12-14T07:38:07;9.02;;;7.60;;
577;SDS011;275;48.492;9.214;2023-12-14T07:40:35;6.85;;;6.15;;
577;SDS011;275;48.492;9.214;2023-12-14T07:43:03;5.55;;;5.05;;
577;SDS011;275;48.492;9.214;2023-12-14T07:45:30;5.40;;;4.90;;
577;SDS011;275;48.492;9.214;2023-12-14T07:47:57;6.72;;;6.13;;
577;SDS011;275;48.492;9.214;2023-12-14T07:50:25;7.18;;;6.57;;
577;SDS011;275;48.492;9.214;2023-12-14T07:52:52;6.47;;;5.88;;
577;SDS011;275;48.492;9.214;2023-12-14T07:55:19;7.32;;;6.57;;
577;SDS011;275;48.492;9.214;2023-12-14T07:57:46;6.70;;;6.10;;
577;SDS011;275;48.492;9.214;2023-12-14T08:00:13;7.57;;;6.72;;
577;SDS011;275;48.492;9.214;2023-12-14T08:02:41;6.82;;;6.22;;
577;SDS011;275;48.492;9.214;2023-12-14T08:05:08;6.68;;;6.07;;
577;SDS011;275;48.492;9.214;2023-12-14T08:07:37;6.75;;;6.13;;
577;SDS011;275;48.492;9.214;2023-12-14T08:10:04;6.90;;;6.30;;
577;SDS011;275;48.492;9.214;2023-12-14T08:12:31;6.68;;;5.70;;
577;SDS011;275;48.492;9.214;2023-12-14T08:14:58;5.38;;;4.82;;
577;SDS011;275;48.492;9.214;2023-12-14T08:17:25;5.88;;;5.38;;
577;SDS011;275;48.492;9.214;2023-12-14T08:19:53;5.75;;;5.22;;
577;SDS011;275;48.492;9.214;2023-12-14T08:22:19;8.00;;;5.18;;
577;SDS011;275;48.492;9.214;2023-12-14T08:24:48;5.35;;;4.85;;
577;SDS011;275;48.492;9.214;2023-12-14T08:27:15;6.00;;;5.38;;
577;SDS011;275;48.492;9.214;2023-12-14T08:29:43;6.63;;;5.85;;
577;SDS011;275;48.492;9.214;2023-12-14T08:32:11;6.10;;;5.50;;
577;SDS011;275;48.492;9.214;2023-12-14T08:34:38;6.50;;;5.40;;
577;SDS011;275;48.492;9.214;2023-12-14T08:37:06;5.68;;;5.07;;
577;SDS011;275;48.492;9.214;2023-12-14T08:39:33;6.25;;;5.65;;
577;SDS011;275;48.492;9.214;2023-12-14T08:42:01;5.50;;;4.90;;
577;SDS011;275;48.492;9.214;2023-12-14T08:44:28;6.07;;;5.50;;
577;SDS011;275;48.492;9.214;2023-12-14T08:46:55;6.78;;;5.57;;
577;SDS011;275;48.492;9.214;2023-12-14T08:49:21;5.50;;;5.00;;
577;SDS011;275;48.492;9.214;2023-12-14T08:51:49;5.43;;;4.93;;
577;SDS011;275;48.492;9.214;2023-12-14T08:54:15;5.25;;;4.75;;
577;SDS011;275;48.492;9.214;2023-12-14T08:56:42;6.15;;;4.50;;
577;SDS011;275;48.492;9.214;2023-12-14T08:59:11;4.60;;;3.10;;
577;SDS011;275;48.492;9.214;2023-12-14T09:01:38;3.63;;;3.33;;
577;SDS011;275;48.492;9.214;2023-12-14T09:04:05;4.43;;;3.83;;
577;SDS011;275;48.492;9.214;2023-12-14T09:06:32;4.95;;;4.43;;
577;SDS011;275;48.492;9.214;2023-12-14T09:08:58;22.85;;;20.38;;
577;SDS011;275;48.492;9.214;2023-12-14T09:11:25;6.50;;;5.80;;
577;SDS011;275;48.492;9.214;2023-12-14T09:13:52;5.80;;;4.90;;
577;SDS011;275;48.492;9.214;2023-12-14T09:16:20;8.90;;;7.38;;
577;SDS011;275;48.492;9.214;2023-12-14T09:18:47;4.15;;;2.80;;
577;SDS011;275;48.492;9.214;2023-12-14T09:21:14;5.90;;;3.55;;
577;SDS011;275;48.492;9.214;2023-12-14T09:23:41;4.93;;;3.50;;
577;SDS011;275;48.492;9.214;2023-12-14T09:26:07;3.65;;;2.83;;
577;SDS011;275;48.492;9.214;2023-12-14T09:28:35;5.85;;;3.92;;
577;SDS011;275;48.492;9.214;2023-12-14T09:31:03;5.13;;;3.75;;
577;SDS011;275;48.492;9.214;2023-12-14T09:33:31;5.20;;;3.35;;
577;SDS011;275;48.492;9.214;2023-12-14T09:35:58;6.30;;;5.70;;
577;SDS011;275;48.492;9.214;2023-12-14T09:38:25;3.00;;;2.40;;
577;SDS011;275;48.492;9.214;2023-12-14T09:40:51;3.65;;;2.75;;
577;SDS011;275;48.492;9.214;2023-12-14T09:43:18;3.90;;;2.10;;
577;SDS011;275;48.492;9.214;2023-12-14T09:45:46;4.22;;;2.95;;
577;SDS011;275;48.492;9.214;2023-12-14T09:48:15;6.55;;;5.85;;
577;SDS011;275;48.492;9.214;2023-12-14T09:50:43;2.70;;;1.80;;
577;SDS011;275;48.492;9.214;2023-12-14T09:53:11;3.55;;;1.85;;
577;SDS011;275;48.492;9.214;2023-12-14T09:55:38;3.72;;;2.35;;
577;SDS011;275;48.492;9.214;2023-12-14T09:58:05;4.05;;;2.20;;
577;SDS011;275;48.492;9.214;2023-12-14T10:00:35;4.28;;;2.65;;
577;SDS011;275;48.492;9.214;2023-12-14T10:03:22;4.18;;;2.65;;
577;SDS011;275;48.492;9.214;2023-12-14T10:05:53;2.95;;;1.45;;
577;SDS011;275;48.492;9.214;2023-12-14T10:08:21;3.55;;;1.70;;
577;SDS011;275;48.492;9.214;2023-12-14T10:10:49;6.15;;;3.50;;
577;SDS011;275;48.492;9.214;2023-12-14T10:13:18;3.22;;;1.90;;
577;SDS011;275;48.492;9.214;2023-12-14T10:15:45;3.42;;;2.40;;
577;SDS011;275;48.492;9.214;2023-12-14T10:18:14;4.97;;;3.80;;
577;SDS011;275;48.492;9.214;2023-12-14T10:20:47;11.20;;;9.68;;
577;SDS011;275;48.492;9.214;2023-12-14T10:23:16;8.70;;;6.70;;
577;SDS011;275;48.492;9.214;2023-12-14T10:25:44;3.60;;;2.20;;
577;SDS011;275;48.492;9.214;2023-12-14T10:28:12;4.28;;;3.10;;
577;SDS011;275;48.492;9.214;2023-12-14T10:30:39;5.82;;;4.05;;
577;SDS011;275;48.492;9.214;2023-12-14T10:33:06;5.05;;;4.35;;
577;SDS011;275;48.492;9.214;2023-12-14T10:35:34;4.95;;;4.40;;
577;SDS011;275;48.492;9.214;2023-12-14T10:38:01;6.35;;;4.75;;
577;SDS011;275;48.492;9.214;2023-12-14T10:40:30;6.88;;;5.28;;
577;SDS011;275;48.492;9.214;2023-12-14T10:42:58;5.68;;;4.65;;
577;SDS011;275;48.492;9.214;2023-12-14T10:45:29;5.55;;;5.05;;
577;SDS011;275;48.492;9.214;2023-12-14T10:47:58;6.35;;;5.75;;
577;SDS011;275;48.492;9.214;2023-12-14T10:50:26;9.07;;;7.68;;
577;SDS011;275;48.492;9.214;2023-12-14T10:52:54;5.80;;;4.25;;
577;SDS011;275;48.492;9.214;2023-12-14T10:55:24;5.30;;;4.30;;
577;SDS011;275;48.492;9.214;2023-12-14T10:57:56;4.45;;;3.40;;
577;SDS011;275;48.492;9.214;2023-12-14T11:00:23;4.25;;;3.40;;
577;SDS011;275;48.492;9.214;2023-12-14T11:02:50;6.32;;;4.43;;
577;SDS011;275;48.492;9.214;2023-12-14T11:05:18;5.25;;;4.22;;
577;SDS011;275;48.492;9.214;2023-12-14T11:07:52;4.05;;;3.47;;
577;SDS011;275;48.492;9.214;2023-12-14T11:10:21;7.45;;;5.53;;
577;SDS011;275;48.492;9.214;2023-12-14T11:12:56;7.90;;;4.40;;
577;SDS011;275;48.492;9.214;2023-12-14T11:15:27;5.38;;;4.75;;
577;SDS011;275;48.492;9.214;2023-12-14T11:20:53;8.48;;;7.65;;
577;SDS011;275;48.492;9.214;2023-12-14T11:23:35;6.15;;;4.25;;
577;SDS011;275;48.492;9.214;2023-12-14T11:26:04;5.63;;;4.25;;
577;SDS011;275;48.492;9.214;2023-12-14T11:28:35;4.60;;;4.07;;
577;SDS011;275;48.492;9.214;2023-12-14T11:31:03;7.70;;;6.32;;
577;SDS011;275;48.492;9.214;2023-12-14T11:33:32;6.13;;;5.07;;
577;SDS011;275;48.492;9.214;2023-12-14T11:35:59;5.45;;;3.92;;
577;SDS011;275;48.492;9.214;2023-12-14T11:38:28;4.80;;;3.35;;
577;SDS011;275;48.492;9.214;2023-12-14T11:40:55;5.82;;;4.95;;
577;SDS011;275;48.492;9.214;2023-12-14T11:43:23;4.30;;;2.97;;
577;SDS011;275;48.492;9.214;2023-12-14T11:45:53;8.63;;;7.05;;
577;SDS011;275;48.492;9.214;2023-12-14T11:48:21;5.60;;;3.67;;
577;SDS011;275;48.492;9.214;2023-12-14T11:50:48;10.70;;;8.73;;
577;SDS011;275;48.492;9.214;2023-12-14T11:53:15;7.95;;;5.07;;
577;SDS011;275;48.492;9.214;2023-12-14T11:55:42;5.70;;;4.00;;
577;SDS011;275;48.492;9.214;2023-12-14T11:58:11;6.85;;;4.00;;
577;SDS011;275;48.492;9.214;2023-12-14T12:00:40;7.72;;;3.22;;
577;SDS011;275;48.492;9.214;2023-12-14T12:03:09;9.45;;;7.07;;
577;SDS011;275;48.492;9.214;2023-12-14T12:05:37;6.60;;;4.40;;
577;SDS011;275;48.492;9.214;2023-12-14T12:08:05;10.13;;;9.00;;
577;SDS011;275;48.492;9.214;2023-12-14T12:10:33;12.13;;;10.43;;
577;SDS011;275;48.492;9.214;2023-12-14T12:13:01;11.02;;;7.90;;
577;SDS011;275;48.492;9.214;2023-12-14T12:15:30;6.63;;;3.88;;
577;SDS011;275;48.492;9.214;2023-12-14T12:17:58;7.22;;;5.32;;
577;SDS011;275;48.492;9.214;2023-12-14T12:20:26;3.80;;;2.80;;
577;SDS011;275;48.492;9.214;2023-12-14T12:22:53;8.13;;;7.05;;
577;SDS011;275;48.492;9.214;2023-12-14T12:25:20;5.35;;;3.65;;
577;SDS011;275;48.492;9.214;2023-12-14T12:27:48;9.57;;;8.38;;
577;SDS011;275;48.492;9.214;2023-12-14T12:30:14;6.70;;;5.47;;
577;SDS011;275;48.492;9.214;2023-12-14T12:32:41;6.43;;;4.38;;
577;SDS011;275;48.492;9.214;2023-12-14T12:35:08;3.97;;;3.38;;
577;SDS011;275;48.492;9.214;2023-12-14T12:37:37;5.53;;;3.80;;
577;SDS011;275;48.492;9.214;2023-12-14T12:40:04;7.93;;;6.53;;
577;SDS011;275;48.492;9.214;2023-12-14T12:42:32;5.97;;;4.70;;
577;SDS011;275;48.492;9.214;2023-12-14T12:44:59;6.55;;;5.85;;
577;SDS011;275;48.492;9.214;2023-12-14T12:47:26;6.25;;;3.35;;
577;SDS011;275;48.492;9.214;2023-12-14T12:49:53;6.20;;;4.10;;
577;SDS011;275;48.492;9.214;2023-12-14T12:52:20;4.32;;;3.50;;
577;SDS011;275;48.492;9.214;2023-12-14T12:54:48;6.00;;;5.40;;
577;SDS011;275;48.492;9.214;2023-12-14T12:57:15;4.65;;;3.13;;
577;SDS011;275;48.492;9.214;2023-12-14T12:59:42;5.65;;;3.35;;
577;SDS011;275;48.492;9.214;2023-12-14T13:02:09;8.20;;;5.90;;
577;SDS011;275;48.492;9.214;2023-12-14T13:04:36;5.80;;;5.05;;
577;SDS011;275;48.492;9.214;2023-12-14T13:07:03;6.07;;;5.47;;
577;SDS011;275;48.492;9.214;2023-12-14T13:09:30;11.27;;;8.18;;
577;SDS011;275;48.492;9.214;2023-12-14T13:11:58;6.78;;;4.75;;
577;SDS011;275;48.492;9.214;2023-12-14T13:14:25;5.97;;;5.25;;
577;SDS011;275;48.492;9.214;2023-12-14T13:16:52;6.95;;;6.18;;
577;SDS011;275;48.492;9.214;2023-12-14T13:19:18;6.80;;;5.10;;
577;SDS011;275;48.492;9.214;2023-12-14T13:21:45;8.02;;;6.50;;
577;SDS011;275;48.492;9.214;2023-12-14T13:24:12;5.68;;;3.80;;
577;SDS011;275;48.492;9.214;2023-12-14T13:26:39;5.85;;;5.28;;
577;SDS011;275;48.492;9.214;2023-12-14T13:29:07;6.00;;;5.40;;
577;SDS011;275;48.492;9.214;2023-12-14T13:31:35;6.70;;;5.93;;
577;SDS011;275;48.492;9.214;2023-12-14T13:34:03;7.10;;;5.10;;
577;SDS011;275;48.492;9.214;2023-12-14T13:36:30;5.90;;;4.65;;
577;SDS011;275;48.492;9.214;2023-12-14T13:38:57;6.88;;;6.18;;
577;SDS011;275;48.492;9.214;2023-12-14T13:41:24;6.03;;;5.30;;
577;SDS011;275;48.492;9.214;2023-12-14T13:43:51;6.93;;;5.97;;
577;SDS011;275;48.492;9.214;2023-12-14T13:46:19;9.02;;;7.40;;
577;SDS011;275;48.492;9.214;2023-12-14T13:48:47;6.72;;;5.00;;
577;SDS011;275;48.492;9.214;2023-12-14T13:51:13;6.75;;;6.13;;
577;SDS011;275;48.492;9.214;2023-12-14T13:53:40;10.73;;;6.68;;
577;SDS011;275;48.492;9.214;2023-12-14T13:56:08;10.80;;;7.65;;
577;SDS011;275;48.492;9.214;2023-12-14T13:58:35;7.13;;;6.10;;
577;SDS011;275;48.492;9.214;2023-12-14T14:01:03;10.35;;;6.80;;
577;SDS011;275;48.492;9.214;2023-12-14T14:03:33;9.95;;;7.30;;
577;SDS011;275;48.492;9.214;2023-12-14T14:06:00;10.50;;;9.07;;
577;SDS011;275;48.492;9.214;2023-12-14T14:08:27;12.10;;;9.82;;
577;SDS011;275;48.492;9.214;2023-12-14T14:10:56;9.23;;;8.20;;
577;SDS011;275;48.492;9.214;2023-12-14T14:13:23;6.70;;;5.55;;
577;SDS011;275;48.492;9.214;2023-12-14T14:15:50;8.48;;;7.50;;
577;SDS011;275;48.492;9.214;2023-12-14T14:18:17;7.05;;;6.20;;
577;SDS011;275;48.492;9.214;2023-12-14T14:20:45;7.85;;;5.90;;
577;SDS011;275;48.492;9.214;2023-12-14T14:23:12;9.45;;;7.40;;
577;SDS011;275;48.492;9.214;2023-12-14T14:25:39;8.52;;;6.50;;
577;SDS011;275;48.492;9.214;2023-12-14T14:28:06;9.80;;;6.43;;
577;SDS011;275;48.492;9.214;2023-12-14T14:30:33;9.40;;;7.95;;
577;SDS011;275;48.492;9.214;2023-12-14T14:33:00;10.32;;;8.32;;
577;SDS011;275;48.492;9.214;2023-12-14T14:35:27;10.82;;;9.13;;
577;SDS011;275;48.492;9.214;2023-12-14T14:37:56;12.15;;;9.10;;
577;SDS011;275;48.492;9.214;2023-12-14T14:40:23;7.07;;;6.38;;
577;SDS011;275;48.492;9.214;2023-12-14T14:42:50;7.95;;;6.95;;
577;SDS011;275;48.492;9.214;2023-12-14T14:45:16;6.32;;;5.70;;
577;SDS011;275;48.492;9.214;2023-12-14T14:47:43;10.80;;;9.70;;
577;SDS011;275;48.492;9.214;2023-12-14T14:50:10;5.53;;;4.75;;
577;SDS011;275;48.492;9.214;2023-12-14T14:52:37;7.03;;;6.32;;
577;SDS011;275;48.492;9.214;2023-12-14T14:55:05;6.50;;;4.95;;
577;SDS011;275;48.492;9.214;2023-12-14T14:57:33;7.13;;;6.35;;
577;SDS011;275;48.492;9.214;2023-12-14T14:59:59;14.68;;;12.30;;
577;SDS011;275;48.492;9.214;2023-12-14T15:02:28;8.35;;;7.45;;
577;SDS011;275;48.492;9.214;2023-12-14T15:04:55;9.48;;;7.53;;
577;SDS011;275;48.492;9.214;2023-12-14T15:07:22;8.25;;;5.45;;
577;SDS011;275;48.492;9.214;2023-12-14T15:09:49;6.05;;;5.15;;
577;SDS011;275;48.492;9.214;2023-12-14T15:12:17;8.02;;;7.18;;
577;SDS011;275;48.492;9.214;2023-12-14T15:14:44;7.25;;;5.75;;
577;SDS011;275;48.492;9.214;2023-12-14T15:17:12;6.75;;;6.03;;
577;SDS011;275;48.492;9.214;2023-12-14T15:19:38;5.75;;;5.22;;
577;SDS011;275;48.492;9.214;2023-12-14T15:22:05;7.03;;;6.32;;
577;SDS011;275;48.492;9.214;2023-12-14T15:24:32;7.10;;;6.40;;
577;SDS011;275;48.492;9.214;2023-12-14T15:26:59;7.68;;;6.95;;
577;SDS011;275;48.492;9.214;2023-12-14T15:29:27;8.70;;;7.70;;
577;SDS011;275;48.492;9.214;2023-12-14T15:31:54;6.80;;;5.93;;
577;SDS011;275;48.492;9.214;2023-12-14T15:34:21;8.20;;;6.78;;
577;SDS011;275;48.492;9.214;2023-12-14T15:36:47;7.15;;;6.45;;
577;SDS011;275;48.492;9.214;2023-12-14T15:39:14;7.93;;;7.20;;
577;SDS011;275;48.492;9.214;2023-12-14T15:41:41;9.68;;;8.75;;
577;SDS011;275;48.492;9.214;2023-12-14T15:44:08;9.70;;;8.70;;
577;SDS011;275;48.492;9.214;2023-12-14T15:46:37;9.27;;;8.48;;
577;SDS011;275;48.492;9.214;2023-12-14T15:49:04;9.80;;;8.90;;